Time,TemperatureF,DewpointF,PressureIn,WindDirection,WindDirectionDegrees,WindSpeedMPH,WindSpeedGustMPH,Humidity,HourlyPrecipIn,Conditions,Clouds,dailyrainin,SoftwareType,DateUTC
2013-01-10 00:01:00,45.0,42.0,30.03,East,90,0.0,0.0,90,0.00,,,0.00,,2013-01-10 08:01:00,
2013-01-10 00:11:00,45.0,42.0,30.03,East,90,0.0,0.0,90,0.00,,,0.00,,2013-01-10 08:11:00,
2013-01-10 00:22:00,45.0,42.0,30.02,East,90,0.0,2.0,90,0.00,,,0.00,,2013-01-10 08:22:00,
2013-01-10 00:32:00,45.0,43.0,30.03,East,90,4.0,6.0,91,0.00,,,0.00,,2013-01-10 08:32:00,
2013-01-10 00:42:00,45.0,43.0,30.03,East,90,4.0,6.0,91,0.00,,,0.00,,2013-01-10 08:42:00,
2013-01-10 00:52:00,45.0,43.0,30.03,West,265,4.0,10.0,93,0.00,,,0.00,,2013-01-10 08:52:00,
2013-01-10 01:02:00,45.0,43.0,30.03,West,261,2.0,5.0,94,0.00,,,0.00,,2013-01-10 09:02:00,
2013-01-10 01:12:00,45.0,43.0,30.03,West,261,2.0,5.0,94,0.00,,,0.00,,2013-01-10 09:12:00,
2013-01-10 01:22:00,45.0,43.0,30.01,ENE,67,3.0,5.0,94,0.00,,,0.00,,2013-01-10 09:22:00,
2013-01-10 01:32:00,45.0,43.0,30.02,ENE,67,0.0,4.0,93,0.00,,,0.00,,2013-01-10 09:32:00,
2013-01-10 01:42:00,45.0,43.0,30.02,ENE,67,0.0,4.0,93,0.00,,,0.00,,2013-01-10 09:42:00,
2013-01-10 01:52:00,45.0,43.0,30.02,WNW,288,5.0,7.0,94,0.00,,,0.00,,2013-01-10 09:52:00,
2013-01-10 02:02:00,45.0,44.0,30.02,WNW,287,3.0,5.0,95,0.00,,,0.00,,2013-01-10 10:02:00,
2013-01-10 02:12:00,45.0,44.0,30.02,WNW,287,3.0,5.0,95,0.00,,,0.00,,2013-01-10 10:12:00,
2013-01-10 02:22:00,45.0,43.0,30.02,WNW,287,3.0,5.0,94,0.00,,,0.00,,2013-01-10 10:22:00,
2013-01-10 02:32:00,45.0,43.0,30.02,West,272,6.0,9.0,93,0.00,,,0.00,,2013-01-10 10:32:00,
2013-01-10 02:42:00,45.0,43.0,30.02,West,272,6.0,9.0,93,0.00,,,0.00,,2013-01-10 10:42:00,
2013-01-10 02:52:00,45.0,43.0,30.02,WNW,285,3.0,7.0,94,0.00,,,0.00,,2013-01-10 10:52:00,
2013-01-10 03:02:00,45.0,43.0,30.01,WNW,282,3.0,5.0,94,0.00,,,0.00,,2013-01-10 11:02:00,
2013-01-10 03:12:00,45.0,43.0,30.01,WNW,282,3.0,5.0,94,0.00,,,0.00,,2013-01-10 11:12:00,
2013-01-10 03:22:00,45.0,44.0,30.01,West,275,3.0,6.0,95,0.00,,,0.00,,2013-01-10 11:22:00,
2013-01-10 03:32:00,45.0,44.0,30.01,West,275,3.0,6.0,95,0.00,,,0.00,,2013-01-10 11:32:00,
2013-01-10 03:42:00,45.0,44.0,30.01,West,275,3.0,6.0,95,0.00,,,0.00,,2013-01-10 11:42:00,
2013-01-10 03:52:00,45.0,44.0,30.00,West,272,3.0,6.0,96,0.00,,,0.00,,2013-01-10 11:52:00,
2013-01-10 04:02:00,45.0,44.0,29.99,West,269,3.0,6.0,96,0.00,,,0.00,,2013-01-10 12:02:00,
2013-01-10 04:12:00,45.0,44.0,29.99,West,269,3.0,6.0,96,0.00,,,0.00,,2013-01-10 12:12:00,
2013-01-10 04:22:00,45.0,44.0,29.99,West,269,2.0,6.0,96,0.00,,,0.00,,2013-01-10 12:22:00,
2013-01-10 04:32:00,45.0,44.0,29.98,West,278,2.0,5.0,96,0.00,,,0.00,,2013-01-10 12:32:00,
2013-01-10 04:42:00,45.0,44.0,29.98,West,278,2.0,5.0,96,0.00,,,0.00,,2013-01-10 12:42:00,
2013-01-10 04:52:00,45.0,44.0,29.98,West,263,1.0,5.0,97,0.00,,,0.00,,2013-01-10 12:52:00,
2013-01-10 05:02:00,44.0,43.0,29.98,WNW,286,7.0,14.0,97,0.00,,,0.00,,2013-01-10 13:02:00,
2013-01-10 05:12:00,44.0,43.0,29.98,WNW,286,7.0,14.0,97,0.00,,,0.00,,2013-01-10 13:12:00,
2013-01-10 05:22:00,43.0,42.0,29.98,WNW,289,6.0,10.0,97,0.00,,,0.00,,2013-01-10 13:22:00,
2013-01-10 05:32:00,43.0,42.0,29.98,West,271,8.0,12.0,97,0.00,,,0.00,,2013-01-10 13:32:00,
2013-01-10 05:42:00,43.0,42.0,29.98,West,271,8.0,12.0,97,0.00,,,0.00,,2013-01-10 13:42:00,
2013-01-10 05:52:00,43.0,42.0,29.98,West,271,8.0,12.0,97,0.00,,,0.00,,2013-01-10 13:52:00,
2013-01-10 06:02:00,41.0,39.0,29.98,WNW,293,9.0,15.0,94,0.00,,,0.00,,2013-01-10 14:02:00,
2013-01-10 06:12:00,41.0,39.0,29.98,WNW,293,9.0,15.0,94,0.00,,,0.00,,2013-01-10 14:12:00,
2013-01-10 06:22:00,41.0,38.0,29.98,WNW,284,12.0,15.0,89,0.00,,,0.00,,2013-01-10 14:22:00,
2013-01-10 06:32:00,41.0,38.0,29.98,WNW,286,9.0,13.0,88,0.00,,,0.00,,2013-01-10 14:32:00,
2013-01-10 06:43:00,41.0,38.0,29.98,WNW,286,9.0,13.0,88,0.00,,,0.00,,2013-01-10 14:43:00,
2013-01-10 06:52:00,41.0,38.0,29.98,WNW,299,9.0,13.0,89,0.00,,,0.00,,2013-01-10 14:52:00,
2013-01-10 07:03:00,42.0,38.0,29.98,NW,311,15.0,20.0,85,0.00,,,0.00,,2013-01-10 15:03:00,
2013-01-10 07:12:00,42.0,38.0,29.98,NW,311,15.0,20.0,85,0.00,,,0.00,,2013-01-10 15:12:00,
2013-01-10 07:22:00,42.0,38.0,29.98,WNW,291,13.0,17.0,85,0.00,,,0.00,,2013-01-10 15:22:00,
2013-01-10 07:32:00,42.0,37.0,29.98,WNW,287,14.0,18.0,83,0.00,,,0.00,,2013-01-10 15:32:00,
2013-01-10 07:43:00,42.0,37.0,29.98,WNW,287,14.0,18.0,83,0.00,,,0.00,,2013-01-10 15:43:00,
2013-01-10 07:52:00,42.0,37.0,29.99,WNW,299,15.0,20.0,83,0.00,,,0.00,,2013-01-10 15:52:00,
2013-01-10 08:02:00,42.0,38.0,29.99,WNW,296,17.0,22.0,84,0.00,,,0.00,,2013-01-10 16:02:00,
2013-01-10 08:12:00,42.0,38.0,29.99,WNW,296,17.0,22.0,84,0.00,,,0.00,,2013-01-10 16:12:00,
2013-01-10 08:22:00,42.0,37.0,29.99,WNW,295,16.0,22.0,82,0.00,,,0.00,,2013-01-10 16:22:00,
2013-01-10 08:33:00,42.0,34.0,30.00,WNW,298,17.0,24.0,74,0.00,,,0.00,,2013-01-10 16:33:00,
2013-01-10 08:42:00,42.0,34.0,30.00,WNW,298,17.0,24.0,74,0.00,,,0.00,,2013-01-10 16:42:00,
2013-01-10 08:52:00,42.0,31.0,30.00,WNW,287,15.0,21.0,65,0.00,,,0.00,,2013-01-10 16:52:00,
2013-01-10 09:02:00,42.0,29.0,30.01,WNW,303,22.0,30.0,60,0.00,,,0.00,,2013-01-10 17:02:00,
2013-01-10 09:12:00,42.0,29.0,30.01,WNW,303,22.0,30.0,60,0.00,,,0.00,,2013-01-10 17:12:00,
2013-01-10 09:22:00,42.0,30.0,30.02,NW,304,16.0,28.0,62,0.00,,,0.00,,2013-01-10 17:22:00,
2013-01-10 09:33:00,42.0,31.0,30.03,West,279,11.0,18.0,64,0.00,,,0.00,,2013-01-10 17:33:00,
2013-01-10 09:42:00,42.0,31.0,30.03,West,279,11.0,18.0,64,0.00,,,0.00,,2013-01-10 17:42:00,
2013-01-10 09:53:00,42.0,30.0,30.02,WNW,288,10.0,19.0,62,0.00,,,0.00,,2013-01-10 17:53:00,
2013-01-10 10:03:00,43.0,31.0,30.03,West,260,12.0,23.0,62,0.00,,,0.00,,2013-01-10 18:03:00,
2013-01-10 10:12:00,43.0,31.0,30.03,West,260,12.0,23.0,62,0.00,,,0.00,,2013-01-10 18:12:00,
2013-01-10 10:22:00,43.0,31.0,30.03,West,260,12.0,23.0,62,0.00,,,0.00,,2013-01-10 18:22:00,
2013-01-10 10:33:00,44.0,29.0,30.03,West,279,16.0,20.0,55,0.00,,,0.00,,2013-01-10 18:33:00,
2013-01-10 10:43:00,44.0,29.0,30.03,WNW,288,10.0,23.0,55,0.00,,,0.00,,2013-01-10 18:43:00,
2013-01-10 10:53:00,44.0,29.0,30.03,WNW,288,10.0,23.0,55,0.00,,,0.00,,2013-01-10 18:53:00,
2013-01-10 11:02:00,44.0,27.0,30.02,WNW,301,18.0,25.0,51,0.00,,,0.00,,2013-01-10 19:02:00,
2013-01-10 11:12:00,44.0,27.0,30.02,WNW,302,17.0,28.0,51,0.00,,,0.00,,2013-01-10 19:12:00,
2013-01-10 11:22:00,44.0,27.0,30.02,WNW,302,17.0,28.0,51,0.00,,,0.00,,2013-01-10 19:22:00,
2013-01-10 11:32:00,44.0,28.0,30.02,WNW,292,19.0,30.0,52,0.00,,,0.00,,2013-01-10 19:32:00,
2013-01-10 11:42:00,44.0,28.0,30.02,WNW,292,19.0,30.0,52,0.00,,,0.00,,2013-01-10 19:42:00,
2013-01-10 12:02:00,45.0,27.0,30.01,West,275,14.0,25.0,50,0.00,,,0.00,,2013-01-10 20:02:00,
2013-01-10 12:12:00,45.0,27.0,30.01,West,275,14.0,25.0,50,0.00,,,0.00,,2013-01-10 20:12:00,
2013-01-10 12:22:00,45.0,27.0,30.01,West,275,14.0,25.0,50,0.00,,,0.00,,2013-01-10 20:22:00,
2013-01-10 12:32:00,45.0,27.0,29.99,WNW,297,20.0,30.0,49,0.00,,,0.00,,2013-01-10 20:32:00,
2013-01-10 12:42:00,45.0,27.0,29.99,WNW,297,20.0,30.0,49,0.00,,,0.00,,2013-01-10 20:42:00,
2013-01-10 12:53:00,46.0,27.0,29.99,WNW,302,14.0,30.0,47,0.00,,,0.00,,2013-01-10 20:53:00,
2013-01-10 13:03:00,45.0,29.0,29.99,WSW,253,13.0,30.0,53,0.00,,,0.00,,2013-01-10 21:03:00,
2013-01-10 13:12:00,45.0,29.0,29.99,WSW,253,13.0,30.0,53,0.00,,,0.00,,2013-01-10 21:12:00,
2013-01-10 13:22:00,45.0,29.0,29.99,WSW,253,13.0,30.0,53,0.00,,,0.00,,2013-01-10 21:22:00,
2013-01-10 13:32:00,45.0,31.0,30.00,WNW,301,15.0,31.0,58,0.00,,,0.00,,2013-01-10 21:32:00,
2013-01-10 13:42:00,45.0,31.0,30.00,WNW,301,15.0,31.0,58,0.00,,,0.00,,2013-01-10 21:42:00,
2013-01-10 13:53:00,45.0,30.0,30.00,WSW,240,16.0,30.0,56,0.00,,,0.00,,2013-01-10 21:53:00,
2013-01-10 14:03:00,45.0,31.0,30.00,NW,307,24.0,32.0,58,0.00,,,0.00,,2013-01-10 22:03:00,
2013-01-10 14:12:00,45.0,30.0,30.01,West,269,21.0,33.0,56,0.00,,,0.00,,2013-01-10 22:12:00,
2013-01-10 14:23:00,45.0,30.0,30.01,West,269,21.0,33.0,56,0.00,,,0.00,,2013-01-10 22:23:00,
2013-01-10 14:32:00,45.0,32.0,30.00,West,268,15.0,34.0,61,0.00,,,0.00,,2013-01-10 22:32:00,
2013-01-10 14:42:00,45.0,32.0,30.00,West,268,15.0,34.0,61,0.00,,,0.00,,2013-01-10 22:42:00,
2013-01-10 15:02:00,45.0,32.0,30.02,West,278,16.0,27.0,59,0.00,,,0.00,,2013-01-10 23:02:00,
2013-01-10 15:12:00,45.0,31.0,30.02,WNW,296,19.0,32.0,58,0.00,,,0.00,,2013-01-10 23:12:00,
2013-01-10 15:22:00,45.0,31.0,30.02,WNW,296,19.0,32.0,58,0.00,,,0.00,,2013-01-10 23:22:00,
2013-01-10 15:32:00,44.0,31.0,30.03,NW,306,18.0,30.0,60,0.00,,,0.00,,2013-01-10 23:32:00,
2013-01-10 15:42:00,44.0,31.0,30.03,NW,306,18.0,30.0,60,0.00,,,0.00,,2013-01-10 23:42:00,
2013-01-10 15:52:00,45.0,32.0,30.03,West,276,15.0,28.0,61,0.00,,,0.00,,2013-01-10 23:52:00,
2013-01-10 16:02:00,44.0,32.0,30.03,West,275,18.0,34.0,63,0.00,,,0.00,,2013-01-11 00:02:00,
2013-01-10 16:12:00,44.0,33.0,30.03,NNW,328,17.0,32.0,64,0.00,,,0.00,,2013-01-11 00:12:00,
2013-01-10 16:22:00,44.0,33.0,30.03,NNW,328,17.0,32.0,64,0.00,,,0.00,,2013-01-11 00:22:00,
2013-01-10 16:32:00,44.0,33.0,30.02,WNW,286,13.0,31.0,65,0.00,,,0.00,,2013-01-11 00:32:00,
2013-01-10 16:42:00,44.0,33.0,30.02,WNW,286,13.0,31.0,65,0.00,,,0.00,,2013-01-11 00:42:00,
2013-01-10 16:52:00,43.0,33.0,30.03,West,269,17.0,30.0,68,0.00,,,0.00,,2013-01-11 00:52:00,
2013-01-10 17:02:00,43.0,32.0,30.03,WNW,288,15.0,29.0,66,0.00,,,0.00,,2013-01-11 01:02:00,
2013-01-10 17:12:00,42.0,33.0,30.03,NW,316,14.0,30.0,69,0.00,,,0.00,,2013-01-11 01:12:00,
2013-01-10 17:22:00,42.0,33.0,30.03,NW,316,14.0,30.0,69,0.00,,,0.00,,2013-01-11 01:22:00,
2013-01-10 17:33:00,41.0,32.0,30.04,West,279,15.0,33.0,71,0.00,,,0.00,,2013-01-11 01:33:00,
2013-01-10 17:42:00,41.0,32.0,30.04,West,279,15.0,33.0,71,0.00,,,0.00,,2013-01-11 01:42:00,
2013-01-10 17:52:00,41.0,32.0,30.04,West,279,15.0,33.0,71,0.00,,,0.00,,2013-01-11 01:52:00,
2013-01-10 18:02:00,41.0,33.0,30.05,NW,306,18.0,31.0,72,0.00,,,0.00,,2013-01-11 02:02:00,
2013-01-10 18:12:00,41.0,33.0,30.05,NW,306,18.0,31.0,72,0.00,,,0.00,,2013-01-11 02:12:00,
2013-01-10 18:22:00,40.0,32.0,30.06,NW,306,17.0,24.0,73,0.00,,,0.00,,2013-01-11 02:22:00,
2013-01-10 18:32:00,40.0,33.0,30.06,WNW,296,17.0,22.0,76,0.00,,,0.00,,2013-01-11 02:32:00,
2013-01-10 18:42:00,40.0,33.0,30.06,WNW,296,17.0,22.0,76,0.00,,,0.00,,2013-01-11 02:42:00,
2013-01-10 18:52:00,39.0,32.0,30.08,NW,310,14.0,23.0,77,0.00,,,0.00,,2013-01-11 02:52:00,
2013-01-10 19:02:00,39.0,32.0,30.08,WNW,289,10.0,16.0,77,0.00,,,0.00,,2013-01-11 03:02:00,
2013-01-10 19:11:00,39.0,32.0,30.08,WNW,289,10.0,16.0,77,0.00,,,0.00,,2013-01-11 03:11:00,
2013-01-10 19:22:00,39.0,32.0,30.08,NW,311,12.0,18.0,77,0.00,,,0.00,,2013-01-11 03:22:00,
2013-01-10 19:33:00,39.0,33.0,30.08,West,277,11.0,16.0,78,0.00,,,0.00,,2013-01-11 03:33:00,
2013-01-10 19:42:00,39.0,33.0,30.08,West,277,11.0,16.0,78,0.00,,,0.00,,2013-01-11 03:42:00,
2013-01-10 19:52:00,39.0,32.0,30.09,West,279,15.0,21.0,77,0.00,,,0.00,,2013-01-11 03:52:00,
2013-01-10 20:02:00,39.0,32.0,30.10,WNW,288,14.0,28.0,76,0.00,,,0.00,,2013-01-11 04:02:00,
2013-01-10 20:11:00,39.0,32.0,30.10,WNW,288,14.0,28.0,76,0.00,,,0.00,,2013-01-11 04:11:00,
2013-01-10 20:22:00,39.0,32.0,30.10,NW,306,15.0,24.0,75,0.00,,,0.00,,2013-01-11 04:22:00,
2013-01-10 20:32:00,39.0,29.0,30.12,WNW,296,16.0,30.0,67,0.00,,,0.00,,2013-01-11 04:32:00,
2013-01-10 20:42:00,39.0,29.0,30.12,WNW,296,16.0,30.0,67,0.00,,,0.00,,2013-01-11 04:42:00,
2013-01-10 20:52:00,40.0,28.0,30.13,NW,311,12.0,19.0,62,0.00,,,0.00,,2013-01-11 04:52:00,
2013-01-10 21:03:00,39.0,27.0,30.12,WNW,290,12.0,25.0,61,0.00,,,0.00,,2013-01-11 05:03:00,
2013-01-10 21:12:00,39.0,27.0,30.12,WNW,290,12.0,25.0,61,0.00,,,0.00,,2013-01-11 05:12:00,
2013-01-10 21:22:00,39.0,27.0,30.13,NW,317,15.0,19.0,61,0.00,,,0.00,,2013-01-11 05:22:00,
2013-01-10 21:33:00,39.0,27.0,30.14,WNW,303,11.0,27.0,63,0.00,,,0.00,,2013-01-11 05:33:00,
2013-01-10 21:42:00,39.0,27.0,30.14,WNW,303,11.0,27.0,63,0.00,,,0.00,,2013-01-11 05:42:00,
2013-01-10 21:52:00,39.0,28.0,30.14,WNW,292,9.0,17.0,64,0.00,,,0.00,,2013-01-11 05:52:00,
2013-01-10 22:02:00,39.0,26.0,30.15,West,273,18.0,25.0,59,0.00,,,0.00,,2013-01-11 06:02:00,
2013-01-10 22:11:00,39.0,26.0,30.15,West,273,18.0,25.0,59,0.00,,,0.00,,2013-01-11 06:11:00,
2013-01-10 22:22:00,39.0,26.0,30.15,West,273,18.0,25.0,59,0.00,,,0.00,,2013-01-11 06:22:00,
2013-01-10 22:32:00,39.0,26.0,30.15,WSW,248,5.0,14.0,60,0.00,,,0.00,,2013-01-11 06:32:00,
2013-01-10 22:42:00,39.0,26.0,30.15,WSW,248,5.0,14.0,60,0.00,,,0.00,,2013-01-11 06:42:00,
2013-01-10 22:52:00,39.0,26.0,30.15,WSW,248,5.0,14.0,60,0.00,,,0.00,,2013-01-11 06:52:00,
2013-01-10 23:02:00,39.0,25.0,30.16,West,281,10.0,16.0,58,0.00,,,0.00,,2013-01-11 07:02:00,
2013-01-10 23:11:00,39.0,25.0,30.16,West,281,10.0,16.0,58,0.00,,,0.00,,2013-01-11 07:11:00,
2013-01-10 23:22:00,39.0,25.0,30.17,West,266,7.0,20.0,57,0.00,,,0.00,,2013-01-11 07:22:00,
2013-01-10 23:32:00,39.0,25.0,30.17,WSW,258,9.0,13.0,58,0.00,,,0.00,,2013-01-11 07:32:00,
2013-01-10 23:42:00,39.0,25.0,30.17,SW,222,5.0,12.0,57,0.00,,,0.00,,2013-01-11 07:42:00,
2013-01-10 23:52:00,39.0,25.0,30.17,SW,222,5.0,12.0,57,0.00,,,0.00,,2013-01-11 07:52:00,